Time;durP1;ratioP1;P1;durP2;ratioP2;P2;SDS_P1;SDS_P2;PMS_P1;PMS_P2;Temp;Humidity;BMP_temperature;BMP_pressure;BME280_temperature;BME280_humidity;BME280_pressure;Samples;Min_cycle;Max_cycle;Signal;HPM_P1;HPM_P2
2024/04/13 00:00:18;;;;;;;1.95;1.13;;;18.70;59.20;20.10;102511.00;;;;5435303;26;20282;-81
2024/04/13 00:02:44;;;;;;;2.55;1.20;;;18.70;59.30;20.10;102495.00;;;;5440761;26;20300;-79
2024/04/13 00:05:13;;;;;;;2.00;1.20;;;18.70;59.30;20.10;102500.00;;;;5449457;26;20628;-84
2024/04/13 00:07:39;;;;;;;1.20;0.93;;;18.70;59.30;20.10;102507.00;;;;5451104;26;20233;-81
2024/04/13 00:10:09;;;;;;;1.52;1.13;;;18.60;59.20;20.10;102501.00;;;;5434799;26;20275;-82
2024/04/13 00:12:35;;;;;;;1.75;1.30;;;18.60;59.20;20.10;102498.00;;;;5450200;26;20244;-80
2024/04/13 00:15:03;;;;;;;1.30;0.88;;;18.60;59.20;20.10;102496.00;;;;5444183;26;20689;-80
2024/04/13 00:17:32;;;;;;;1.48;0.98;;;18.60;59.30;20.10;102488.00;;;;5444233;26;20615;-80
2024/04/13 00:20:01;;;;;;;1.08;0.90;;;18.60;59.30;20.10;102489.00;;;;5432578;26;20267;-79
2024/04/13 00:22:27;;;;;;;1.77;1.00;;;18.60;59.30;20.10;102487.00;;;;5452096;26;20252;-78
2024/04/13 00:24:56;;;;;;;1.35;0.95;;;18.60;59.30;20.10;102487.00;;;;5452129;26;20267;-80
2024/04/13 00:27:23;;;;;;;2.00;1.10;;;18.60;59.30;20.10;102487.00;;;;5452102;26;20341;-81
2024/04/13 00:29:53;;;;;;;1.00;0.90;;;18.60;59.30;20.00;102484.00;;;;5452047;26;20244;-79
2024/04/13 00:32:19;;;;;;;0.95;0.80;;;18.60;59.30;20.00;102482.00;;;;5452199;26;20291;-77
2024/04/13 00:34:50;;;;;;;2.03;1.00;;;18.60;59.30;20.00;102487.00;;;;5450134;26;20627;-77
2024/04/13 00:37:18;;;;;;;1.60;1.00;;;18.60;59.30;20.00;102483.00;;;;5450659;26;20291;-77
2024/04/13 00:39:47;;;;;;;1.38;1.00;;;18.60;59.30;20.00;102476.00;;;;5449900;26;20236;-77
2024/04/13 00:42:14;;;;;;;2.45;1.27;;;18.60;59.30;20.00;102473.00;;;;5452516;26;20767;-79
2024/04/13 00:44:44;;;;;;;1.52;1.02;;;18.60;59.30;20.00;102468.00;;;;5449831;26;20759;-78
2024/04/13 00:47:11;;;;;;;1.40;0.88;;;18.60;59.30;20.00;102476.00;;;;5451827;26;20228;-77
2024/04/13 00:49:42;;;;;;;1.50;0.90;;;18.50;59.30;20.00;102466.00;;;;5452482;26;20228;-77
2024/04/13 00:52:13;;;;;;;1.90;1.10;;;18.50;59.20;19.90;102464.00;;;;5451338;26;20240;-78
2024/04/13 00:54:45;;;;;;;2.28;0.95;;;18.50;59.30;19.90;102460.00;;;;5448788;26;20605;-79
2024/04/13 00:57:12;;;;;;;1.83;0.93;;;18.50;59.30;19.90;102454.00;;;;5445982;26;20270;-77
2024/04/13 00:59:41;;;;;;;1.95;1.33;;;18.50;59.20;19.90;102457.00;;;;5450243;26;20232;-76
2024/04/13 01:02:11;;;;;;;1.55;0.88;;;18.50;59.30;19.90;102455.00;;;;5450109;26;20282;-77
2024/04/13 01:04:41;;;;;;;2.40;0.98;;;18.50;59.20;19.90;102446.00;;;;5451338;26;20577;-77
2024/04/13 01:07:11;;;;;;;1.13;0.73;;;18.50;59.20;19.80;102446.00;;;;5451690;26;20229;-77
2024/04/13 01:09:41;;;;;;;3.97;0.93;;;18.50;59.20;19.90;102437.00;;;;5451739;26;20274;-78
2024/04/13 01:12:09;;;;;;;1.25;0.80;;;18.50;59.30;19.90;102439.00;;;;5445944;26;20279;-78
2024/04/13 01:14:38;;;;;;;1.38;0.90;;;18.50;59.20;19.80;102439.00;;;;5449326;26;20341;-81
2024/04/13 01:17:05;;;;;;;4.10;0.95;;;18.40;59.20;19.80;102425.00;;;;5440091;26;20624;-80
2024/04/13 01:19:35;;;;;;;1.30;0.85;;;18.40;59.20;19.80;102434.00;;;;5450948;26;20228;-80
2024/04/13 01:22:03;;;;;;;1.50;0.80;;;18.40;59.70;19.80;102435.00;;;;5446153;26;20745;-80
2024/04/13 01:24:35;;;;;;;1.45;0.75;;;18.40;59.20;19.70;102429.00;;;;5443019;26;20228;-79
2024/04/13 01:27:03;;;;;;;2.13;0.98;;;18.40;59.30;19.80;102427.00;;;;5441997;26;20244;-79
2024/04/13 01:29:31;;;;;;;1.88;1.00;;;18.40;59.30;19.80;102437.00;;;;5438165;26;20324;-79
2024/04/13 01:31:57;;;;;;;2.80;1.20;;;18.40;59.20;19.80;102431.00;;;;5440874;26;20248;-80
2024/04/13 01:34:26;;;;;;;1.40;1.00;;;18.40;59.30;19.80;102435.00;;;;5449396;26;20236;-80
2024/04/13 01:36:52;;;;;;;1.17;0.88;;;18.40;59.30;19.70;102429.00;;;;5450480;26;20639;-80
2024/04/13 01:39:21;;;;;;;1.25;1.00;;;18.30;59.20;19.70;102428.00;;;;5433617;26;20284;-80
2024/04/13 01:41:54;;;;;;;1.35;0.80;;;18.30;59.20;19.70;102433.00;;;;5437677;26;20279;-80
2024/04/13 01:44:23;;;;;;;2.00;1.13;;;18.30;59.30;19.70;102428.00;;;;5450972;26;20231;-81
2024/04/13 01:46:49;;;;;;;2.42;1.60;;;18.30;59.20;19.70;102425.00;;;;5449440;26;20232;-80
2024/04/13 01:49:18;;;;;;;1.63;0.90;;;18.20;59.20;19.70;102436.00;;;;5448148;26;20272;-80
2024/04/13 01:51:44;;;;;;;1.10;1.00;;;18.20;59.20;19.60;102424.00;;;;5450858;26;20224;-76
2024/04/13 01:54:13;;;;;;;2.13;1.20;;;18.20;59.30;19.60;102422.00;;;;5451411;26;20296;-79
2024/04/13 01:56:39;;;;;;;1.70;1.30;;;18.20;59.30;19.60;102425.00;;;;5450582;26;20228;-78
2024/04/13 01:59:10;;;;;;;1.67;1.05;;;18.20;59.40;19.60;102429.00;;;;5441948;26;20629;-80
2024/04/13 02:01:36;;;;;;;2.55;1.00;;;18.10;59.40;19.60;102430.00;;;;5443360;26;20283;-77
2024/04/13 02:04:06;;;;;;;2.33;1.30;;;18.10;59.40;19.50;102429.00;;;;5450947;26;20224;-78
2024/04/13 02:06:32;;;;;;;1.42;0.95;;;18.10;59.50;19.50;102432.00;;;;5449376;26;20248;-77
2024/04/13 02:09:00;;;;;;;2.17;1.52;;;18.10;59.50;19.50;102438.00;;;;5450611;26;20274;-78
2024/04/13 02:11:26;;;;;;;3.35;1.00;;;18.10;59.50;19.50;102430.00;;;;5450377;26;20280;-77
2024/04/13 02:13:55;;;;;;;2.28;1.20;;;18.10;59.50;19.40;102423.00;;;;5451487;26;20782;-77
2024/04/13 02:16:24;;;;;;;1.60;1.10;;;18.00;59.50;19.40;102429.00;;;;5456361;26;20679;-77
2024/04/13 02:18:52;;;;;;;2.25;1.08;;;18.00;60.20;19.40;102426.00;;;;5431800;26;20237;-77
2024/04/13 02:21:20;;;;;;;1.48;1.00;;;18.00;59.60;19.40;102430.00;;;;5426599;26;20345;-77
2024/04/13 02:23:49;;;;;;;1.65;0.93;;;18.00;59.60;19.40;102434.00;;;;5442027;26;20276;-76
2024/04/13 02:26:15;;;;;;;1.25;1.00;;;18.00;59.70;19.40;102433.00;;;;5441510;26;20850;-77
2024/04/13 02:28:43;;;;;;;2.25;1.13;;;17.90;59.70;19.40;102428.00;;;;5449067;26;20338;-77
2024/04/13 02:31:09;;;;;;;2.33;1.33;;;17.90;60.30;19.40;102427.00;;;;5446934;26;20252;-77
2024/04/13 02:33:41;;;;;;;1.02;0.88;;;17.90;59.70;19.40;102428.00;;;;5421050;26;20260;-78
2024/04/13 02:36:08;;;;;;;1.90;1.60;;;17.90;59.80;19.40;102430.00;;;;5449172;26;20224;-77
2024/04/13 02:38:36;;;;;;;3.97;1.10;;;17.90;59.80;19.30;102423.00;;;;5446487;26;20257;-77
2024/04/13 02:41:03;;;;;;;1.20;0.90;;;17.90;59.80;19.30;102421.00;;;;5430293;26;20323;-77
2024/04/13 02:43:35;;;;;;;2.72;1.40;;;17.80;59.70;19.30;102430.00;;;;5441021;26;20271;-77
2024/04/13 02:46:03;;;;;;;1.73;1.35;;;17.80;59.80;19.30;102429.00;;;;5448975;26;20228;-77
2024/04/13 02:48:32;;;;;;;1.70;0.93;;;17.80;59.80;19.30;102434.00;;;;5446667;26;20258;-77
2024/04/13 02:51:01;;;;;;;1.48;0.95;;;17.80;59.80;19.20;102433.00;;;;5449552;26;20239;-77
2024/04/13 02:53:30;;;;;;;1.38;0.93;;;17.70;59.80;19.30;102429.00;;;;5449202;26;20274;-77
2024/04/13 02:55:56;;;;;;;1.25;1.02;;;17.70;60.40;19.20;102433.00;;;;5449234;26;20232;-77
2024/04/13 02:58:24;;;;;;;1.50;1.20;;;17.70;59.80;19.20;102437.00;;;;5449148;26;20290;-77
2024/04/13 03:00:52;;;;;;;2.67;1.20;;;17.70;59.90;19.20;102430.00;;;;5449456;26;20336;-79
2024/04/13 03:03:21;;;;;;;2.25;1.38;;;17.70;59.90;19.20;102426.00;;;;5448357;26;20236;-77
2024/04/13 03:05:57;;;;;;;2.70;1.20;;;17.70;60.00;19.00;102431.00;;;;5448390;26;20345;-77
2024/04/13 03:08:29;;;;;;;2.05;0.90;;;17.60;60.20;19.10;102432.00;;;;5446969;26;20275;-77
2024/04/13 03:10:58;;;;;;;3.38;1.40;;;17.60;60.10;19.10;102443.00;;;;5440121;26;20228;-77
2024/04/13 03:13:26;;;;;;;2.58;1.10;;;17.60;60.10;19.10;102435.00;;;;5430493;26;20233;-77
2024/04/13 03:16:00;;;;;;;5.55;1.83;;;17.60;60.10;19.00;102442.00;;;;5443696;26;20232;-77
2024/04/13 03:18:30;;;;;;;1.92;1.27;;;17.60;60.20;19.10;102441.00;;;;5448175;26;20224;-77
2024/04/13 03:20:57;;;;;;;2.95;1.20;;;17.50;60.00;19.00;102444.00;;;;5444733;26;20348;-77
2024/04/13 03:23:31;;;;;;;4.05;1.60;;;17.50;60.10;19.00;102450.00;;;;5431656;26;20405;-77
2024/04/13 03:25:57;;;;;;;1.98;0.95;;;17.50;60.20;19.00;102446.00;;;;5446391;26;20235;-77
2024/04/13 03:28:29;;;;;;;1.77;1.20;;;17.50;60.20;18.90;102437.00;;;;5446344;26;20236;-77
2024/04/13 03:30:56;;;;;;;1.77;1.10;;;17.40;60.20;18.90;102429.00;;;;5443884;26;20243;-77
2024/04/13 03:33:25;;;;;;;1.65;1.20;;;17.40;60.10;18.90;102438.00;;;;5436303;26;20285;-76
2024/04/13 03:35:51;;;;;;;2.45;0.95;;;17.40;60.20;18.90;102431.00;;;;5444775;26;20245;-77
2024/04/13 03:38:20;;;;;;;2.40;1.27;;;17.40;60.30;18.90;102430.00;;;;5451761;26;20443;-77
2024/04/13 03:41:05;;;;;;;1.67;1.20;;;17.30;60.30;18.70;102427.00;;;;5451690;26;20228;-77
2024/04/13 03:43:31;;;;;;;2.20;1.25;;;17.30;61.30;18.80;102420.00;;;;5439287;26;20231;-77
2024/04/13 03:46:00;;;;;;;2.38;1.20;;;17.30;60.40;18.80;102427.00;;;;5443725;26;20240;-77
2024/04/13 03:48:26;;;;;;;1.60;1.30;;;17.20;60.40;18.80;102420.00;;;;5453071;26;20240;-78
2024/04/13 03:50:55;;;;;;;1.75;1.15;;;17.20;60.40;18.80;102415.00;;;;5451930;26;20240;-78
2024/04/13 03:53:21;;;;;;;2.17;1.60;;;17.20;60.40;18.70;102416.00;;;;5452804;26;20824;-77
2024/04/13 03:55:52;;;;;;;1.20;0.98;;;17.20;60.40;18.70;102412.00;;;;5446591;26;20299;-78
2024/04/13 03:58:18;;;;;;;1.63;1.45;;;17.20;60.60;18.70;102414.00;;;;5445411;26;20240;-77
2024/04/13 04:00:47;;;;;;;1.48;1.17;;;17.10;60.50;18.60;102412.00;;;;5452878;26;20309;-78
2024/04/13 04:03:13;;;;;;;2.55;1.55;;;17.10;61.30;18.60;102409.00;;;;5453006;26;20224;-77
2024/04/13 04:05:42;;;;;;;1.90;1.23;;;17.00;60.60;18.60;102416.00;;;;5451303;26;20332;-78
2024/04/13 04:08:08;;;;;;;1.92;1.50;;;17.00;60.60;18.60;102409.00;;;;5438723;26;20240;-78
2024/04/13 04:10:37;;;;;;;4.18;1.65;;;17.00;60.70;18.60;102417.00;;;;5449791;26;20233;-77
2024/04/13 04:13:06;;;;;;;4.22;1.48;;;17.00;60.80;18.50;102412.00;;;;5446314;26;20732;-77
2024/04/13 04:15:35;;;;;;;2.60;1.52;;;16.90;60.80;18.60;102413.00;;;;5441692;26;20333;-78
2024/04/13 04:18:02;;;;;;;1.55;1.30;;;16.90;60.80;18.50;102414.00;;;;5434244;26;20275;-77
2024/04/13 04:20:33;;;;;;;2.42;1.50;;;16.90;60.90;18.50;102419.00;;;;5447388;26;20228;-77
2024/04/13 04:23:00;;;;;;;2.97;1.50;;;16.90;60.90;18.50;102409.00;;;;5436336;26;20341;-76
2024/04/13 04:25:29;;;;;;;2.63;1.77;;;16.80;60.90;18.50;102402.00;;;;5448699;26;20346;-77
2024/04/13 04:27:55;;;;;;;1.80;1.25;;;16.80;60.90;18.40;102404.00;;;;5436830;26;20287;-76
2024/04/13 04:30:26;;;;;;;1.75;1.55;;;16.80;60.90;18.40;102400.00;;;;5448509;26;20271;-78
2024/04/13 04:32:53;;;;;;;2.60;1.35;;;16.80;61.00;18.40;102406.00;;;;5451822;26;20232;-77
2024/04/13 04:35:21;;;;;;;1.92;1.23;;;16.80;61.00;18.40;102401.00;;;;5431152;26;20237;-79
2024/04/13 04:37:48;;;;;;;2.13;1.05;;;16.80;61.00;18.40;102400.00;;;;5437585;26;20240;-80
2024/04/13 04:40:16;;;;;;;3.58;1.10;;;16.70;60.90;18.40;102397.00;;;;5448414;26;20783;-80
2024/04/13 04:42:43;;;;;;;2.15;1.67;;;16.70;61.00;18.30;102400.00;;;;5450481;26;20337;-80
2024/04/13 04:45:11;;;;;;;2.70;1.48;;;16.70;61.00;18.30;102402.00;;;;5437782;26;20230;-80
2024/04/13 04:47:40;;;;;;;1.10;0.93;;;16.70;61.10;18.20;102410.00;;;;5445069;26;20969;-79
2024/04/13 04:50:09;;;;;;;1.10;1.00;;;16.60;61.10;18.30;102412.00;;;;5446619;26;20863;-80
2024/04/13 04:52:35;;;;;;;2.28;1.20;;;16.60;61.10;18.30;102404.00;;;;5438709;26;20230;-79
2024/04/13 04:55:05;;;;;;;3.42;1.17;;;16.60;61.10;18.20;102400.00;;;;5420540;26;20791;-79
2024/04/13 04:57:31;;;;;;;2.15;1.33;;;16.60;61.10;18.20;102402.00;;;;5440198;26;20577;-80
2024/04/13 04:59:59;;;;;;;2.10;1.38;;;16.50;61.20;18.20;102393.00;;;;5442514;26;20236;-79
2024/04/13 05:02:26;;;;;;;1.80;1.42;;;16.50;61.20;18.20;102395.00;;;;5436894;26;20756;-79
2024/04/13 05:04:57;;;;;;;2.30;1.60;;;16.50;61.20;18.10;102390.00;;;;5450035;26;20228;-80
2024/04/13 05:07:23;;;;;;;2.08;1.25;;;16.50;61.40;18.10;102392.00;;;;5451517;26;20336;-79
2024/04/13 05:09:52;;;;;;;2.03;1.38;;;16.40;61.30;18.10;102399.00;;;;5450478;26;20236;-80
2024/04/13 05:12:18;;;;;;;3.20;1.50;;;16.50;61.40;18.10;102397.00;;;;5452121;26;20295;-80
2024/04/13 05:14:47;;;;;;;2.13;1.40;;;16.40;61.50;18.00;102395.00;;;;5448730;26;20271;-80
2024/04/13 05:17:13;;;;;;;2.35;1.30;;;16.40;61.60;18.10;102401.00;;;;5451776;26;20559;-80
2024/04/13 05:19:42;;;;;;;1.52;1.30;;;16.40;61.70;18.10;102390.00;;;;5449653;26;20713;-80
2024/04/13 05:22:11;;;;;;;2.28;1.58;;;16.40;61.80;18.00;102385.00;;;;5437485;26;20271;-79
2024/04/13 05:24:40;;;;;;;1.60;1.27;;;16.40;62.00;18.10;102390.00;;;;5069234;26;10000562;-79
2024/04/13 05:27:06;;;;;;;4.43;1.60;;;16.40;62.00;18.10;102387.00;;;;5444642;26;20287;-80
2024/04/13 05:29:39;;;;;;;1.73;1.25;;;16.40;62.10;18.10;102387.00;;;;5429730;26;20292;-80
2024/04/13 05:32:07;;;;;;;3.85;1.60;;;16.40;62.20;18.10;102386.00;;;;5433447;26;20267;-81
2024/04/13 05:34:36;;;;;;;2.50;1.48;;;16.40;62.30;18.10;102382.00;;;;5432788;26;20280;-79
2024/04/13 05:37:02;;;;;;;2.08;1.55;;;16.40;62.40;18.10;102384.00;;;;5421238;26;20252;-78
2024/04/13 05:39:34;;;;;;;3.80;1.95;;;16.40;62.50;18.10;102385.00;;;;5433294;26;20244;-80
2024/04/13 05:42:00;;;;;;;3.80;1.63;;;16.40;62.50;18.20;102386.00;;;;5423683;26;20345;-80
2024/04/13 05:44:28;;;;;;;2.58;1.50;;;16.50;62.50;18.20;102377.00;;;;5432737;26;20279;-78
2024/04/13 05:46:54;;;;;;;4.70;2.05;;;16.50;62.60;18.20;102384.00;;;;5441253;26;20224;-80
2024/04/13 05:49:23;;;;;;;3.17;1.60;;;16.50;62.50;18.20;102375.00;;;;5429854;26;20232;-79
2024/04/13 05:51:49;;;;;;;2.65;1.90;;;16.60;62.70;18.30;102385.00;;;;5435496;26;20268;-79
2024/04/13 05:54:18;;;;;;;7.15;1.98;;;16.60;62.80;18.30;102381.00;;;;5425185;26;20232;-80
2024/04/13 05:56:47;;;;;;;1.85;1.38;;;16.60;62.80;18.40;102382.00;;;;5428637;26;20355;-80
2024/04/13 05:59:15;;;;;;;1.90;1.50;;;16.60;63.50;18.40;102383.00;;;;5434281;26;20266;-78
2024/04/13 06:01:41;;;;;;;3.13;1.85;;;16.70;62.80;18.50;102376.00;;;;5435374;26;20839;-79
2024/04/13 06:04:10;;;;;;;1.60;1.20;;;16.70;62.80;18.50;102378.00;;;;5434528;26;20232;-79
2024/04/13 06:06:36;;;;;;;2.92;1.55;;;16.70;62.90;18.60;102381.00;;;;5426756;26;20276;-79
2024/04/13 06:09:05;;;;;;;2.50;1.48;;;16.80;63.00;18.60;102377.00;;;;5421343;26;20296;-79
2024/04/13 06:11:33;;;;;;;3.40;1.88;;;16.80;62.90;18.70;102383.00;;;;5432854;26;20944;-80
2024/04/13 06:14:05;;;;;;;1.77;1.40;;;16.90;63.00;18.70;102385.00;;;;5432549;26;20275;-77
2024/04/13 06:16:31;;;;;;;3.97;1.60;;;17.00;63.20;18.70;102387.00;;;;5422663;26;20237;-79
2024/04/13 06:18:59;;;;;;;1.88;1.23;;;17.00;63.00;18.80;102395.00;;;;5423752;26;20300;-81
2024/04/13 06:21:26;;;;;;;2.70;1.75;;;17.10;63.10;18.90;102406.00;;;;5430190;26;20375;-78
2024/04/13 06:23:55;;;;;;;1.88;1.55;;;17.20;63.20;19.00;102388.00;;;;5423680;26;20233;-78
2024/04/13 06:26:21;;;;;;;3.30;1.30;;;17.20;63.20;19.00;102394.00;;;;5427662;26;20295;-79
2024/04/13 06:28:51;;;;;;;1.83;1.40;;;17.30;63.20;19.10;102393.00;;;;5434069;26;20240;-80
2024/04/13 06:31:20;;;;;;;3.10;1.80;;;17.40;63.30;19.20;102391.00;;;;5434277;26;20287;-80
2024/04/13 06:33:49;;;;;;;2.42;1.60;;;17.50;63.30;19.30;102384.00;;;;5423711;26;20240;-79
2024/04/13 06:36:15;;;;;;;4.25;1.63;;;17.50;63.20;19.40;102381.00;;;;5430581;26;20227;-78
2024/04/13 06:38:44;;;;;;;5.53;1.75;;;17.60;63.20;19.40;102374.00;;;;5431861;26;20237;-79
2024/04/13 06:41:13;;;;;;;3.38;1.80;;;17.70;63.30;19.60;102382.00;;;;5425775;26;20239;-79
2024/04/13 06:43:39;;;;;;;2.35;1.80;;;17.80;63.20;19.60;102384.00;;;;5422297;26;20262;-78
2024/04/13 06:46:08;;;;;;;3.53;1.30;;;17.90;63.30;19.80;102404.00;;;;5422159;26;20249;-78
2024/04/13 06:48:36;;;;;;;2.55;1.58;;;17.90;63.20;19.80;102384.00;;;;5417878;26;20293;-79
2024/04/13 06:51:05;;;;;;;2.25;1.23;;;18.10;63.20;19.90;102377.00;;;;5437161;26;20820;-80
2024/04/13 06:53:31;;;;;;;3.88;1.95;;;18.20;63.10;20.00;102389.00;;;;5446644;26;20232;-79
2024/04/13 06:56:00;;;;;;;3.72;1.77;;;18.20;63.00;20.10;102377.00;;;;5443712;26;20233;-79
2024/04/13 06:58:26;;;;;;;2.25;2.05;;;18.30;62.90;20.20;102371.00;;;;5413627;26;20229;-77
2024/04/13 07:00:58;;;;;;;3.65;1.95;;;18.40;62.90;20.20;102371.00;;;;5439802;26;20239;-79
2024/04/13 07:03:25;;;;;;;3.90;2.15;;;18.50;63.00;20.30;102367.00;;;;5444096;26;20386;-80
2024/04/13 07:06:05;;;;;;;2.30;1.80;;;18.60;62.90;20.30;102371.00;;;;5433456;26;20228;-78
2024/04/13 07:08:31;;;;;;;2.60;2.05;;;18.70;62.90;20.50;102366.00;;;;5429471;26;20274;-79
2024/04/13 07:11:00;;;;;;;2.92;1.98;;;18.70;62.70;20.60;102364.00;;;;5443040;26;20236;-77
2024/04/13 07:13:27;;;;;;;2.92;2.17;;;18.80;62.70;20.70;102362.00;;;;5449590;26;20307;-81
2024/04/13 07:15:56;;;;;;;2.53;1.98;;;18.90;62.70;20.80;102367.00;;;;5447197;26;20734;-79
2024/04/13 07:18:22;;;;;;;2.00;1.80;;;19.00;62.70;20.90;102361.00;;;;5439757;26;20235;-82
2024/04/13 07:20:51;;;;;;;3.25;2.25;;;19.10;62.70;21.00;102360.00;;;;5447722;26;20294;-79
2024/04/13 07:23:20;;;;;;;5.07;2.28;;;19.20;62.50;21.00;102350.00;;;;5453798;26;20347;-79
2024/04/13 07:25:48;;;;;;;4.43;2.33;;;19.30;62.40;21.10;102344.00;;;;5454275;26;20365;-79
2024/04/13 07:28:14;;;;;;;2.65;1.88;;;19.40;62.30;21.20;102356.00;;;;5451522;26;20291;-79
2024/04/13 07:30:43;;;;;;;4.72;2.53;;;19.50;62.20;21.30;102350.00;;;;5454022;26;20236;-79
2024/04/13 07:33:09;;;;;;;4.65;2.35;;;19.60;62.20;21.40;102358.00;;;;5452493;26;20244;-81
2024/04/13 07:35:38;;;;;;;3.78;2.05;;;19.70;62.10;21.50;102352.00;;;;5453553;26;20763;-81
2024/04/13 07:38:04;;;;;;;2.97;2.33;;;19.80;62.00;21.60;102353.00;;;;5453428;26;20240;-80
2024/04/13 07:40:35;;;;;;;3.03;2.33;;;19.90;62.00;21.60;102353.00;;;;5453584;26;20267;-79
2024/04/13 07:43:01;;;;;;;2.88;2.30;;;19.90;61.80;21.70;102354.00;;;;5449140;26;20741;-79
2024/04/13 07:45:30;;;;;;;4.25;2.50;;;20.00;61.80;21.80;102344.00;;;;5453008;26;20651;-79
2024/04/13 07:47:56;;;;;;;5.55;3.15;;;20.10;61.70;21.90;102345.00;;;;5446353;26;20346;-79
2024/04/13 07:50:26;;;;;;;4.05;2.35;;;20.20;61.60;22.00;102344.00;;;;5449570;26;20290;-79
2024/04/13 07:52:52;;;;;;;3.53;2.15;;;20.30;61.40;22.00;102344.00;;;;5451813;26;20679;-81
2024/04/13 07:55:21;;;;;;;5.90;2.53;;;20.40;61.40;22.20;102340.00;;;;5444011;26;20280;-81
2024/04/13 07:57:51;;;;;;;3.95;2.08;;;20.40;61.20;22.20;102336.00;;;;5445959;26;20240;-80
2024/04/13 08:00:20;;;;;;;3.65;2.45;;;20.50;61.90;22.30;102335.00;;;;5451890;26;20229;-79
2024/04/13 08:02:47;;;;;;;3.20;2.33;;;20.60;61.30;22.40;102331.00;;;;5433645;26;20348;-81
2024/04/13 08:05:15;;;;;;;4.15;2.85;;;20.70;61.20;22.50;102330.00;;;;5449253;26;20228;-79
2024/04/13 08:07:41;;;;;;;3.80;2.33;;;20.80;60.90;22.50;102332.00;;;;5451166;26;20248;-79
2024/04/13 08:10:10;;;;;;;3.97;2.47;;;20.80;60.90;22.60;102334.00;;;;5438635;26;20400;-81
2024/04/13 08:12:36;;;;;;;4.45;2.80;;;20.90;60.80;22.70;102331.00;;;;5450275;26;20336;-79
2024/04/13 08:15:10;;;;;;;5.22;2.30;;;21.00;60.80;22.70;102341.00;;;;5446148;26;20728;-75
2024/04/13 08:17:37;;;;;;;3.00;1.92;;;21.10;60.70;22.90;102329.00;;;;5445581;26;20228;-80
2024/04/13 08:20:08;;;;;;;3.08;1.92;;;21.20;60.70;22.90;102323.00;;;;5454626;26;20244;-80
2024/04/13 08:22:35;;;;;;;3.25;2.53;;;21.30;60.50;23.00;102323.00;;;;5453195;26;20216;-80
2024/04/13 08:25:04;;;;;;;4.90;2.28;;;21.30;60.40;23.10;102320.00;;;;5453220;26;20332;-79
2024/04/13 08:27:31;;;;;;;2.15;1.52;;;21.40;60.20;23.20;102316.00;;;;5452817;26;20212;-82
2024/04/13 08:30:00;;;;;;;3.05;2.47;;;21.50;60.20;23.30;102309.00;;;;5453025;26;20549;-81
2024/04/13 08:32:28;;;;;;;2.15;1.58;;;21.60;60.10;23.30;102317.00;;;;5449579;26;20232;-79
2024/04/13 08:34:58;;;;;;;2.78;2.00;;;21.70;59.90;23.40;102316.00;;;;5451324;26;20569;-81
2024/04/13 08:37:24;;;;;;;4.70;2.42;;;21.80;59.80;23.50;102320.00;;;;5450785;26;20565;-81
2024/04/13 08:39:52;;;;;;;4.63;2.33;;;21.90;59.80;23.50;102312.00;;;;5453202;26;20228;-82
2024/04/13 08:42:31;;;;;;;3.17;2.13;;;21.90;59.60;23.50;102309.00;;;;5452986;26;20232;-83
2024/04/13 08:45:02;;;;;;;4.28;2.10;;;22.00;59.30;23.60;102321.00;;;;5452967;26;20232;-82
2024/04/13 08:47:32;;;;;;;2.78;1.70;;;22.10;59.30;23.70;102310.00;;;;5453032;26;20384;-82
2024/04/13 08:50:02;;;;;;;2.13;1.90;;;22.10;59.00;23.80;102317.00;;;;5451292;26;20232;-81
2024/04/13 08:52:31;;;;;;;2.58;2.00;;;22.20;59.10;23.80;102308.00;;;;5452203;26;20244;-81
2024/04/13 08:55:00;;;;;;;3.50;2.17;;;22.20;58.90;23.90;102302.00;;;;5451248;26;20322;-80
2024/04/13 08:57:33;;;;;;;4.10;2.72;;;22.30;58.70;23.80;102300.00;;;;5453252;26;20350;-80
2024/04/13 09:00:08;;;;;;;3.83;2.58;;;22.30;58.60;23.90;102301.00;;;;5452573;26;20729;-80
2024/04/13 09:02:38;;;;;;;6.00;2.92;;;22.40;58.50;23.90;102300.00;;;;5452558;26;20353;-82
2024/04/13 09:05:09;;;;;;;4.18;3.00;;;22.40;58.50;24.00;102300.00;;;;5451937;26;20585;-82
2024/04/13 09:07:36;;;;;;;4.03;2.75;;;22.50;58.40;24.00;102291.00;;;;5452305;26;20841;-83
2024/04/13 09:10:09;;;;;;;4.28;3.20;;;22.50;58.40;24.10;102296.00;;;;5451557;26;20329;-82
2024/04/13 09:12:35;;;;;;;3.20;2.80;;;22.60;58.30;24.20;102292.00;;;;5452905;26;20572;-81
2024/04/13 09:15:04;;;;;;;8.82;3.08;;;22.60;58.90;24.20;102288.00;;;;5451575;26;20722;-79
2024/04/13 09:17:31;;;;;;;7.13;3.13;;;22.70;58.30;24.30;102284.00;;;;5452503;26;20233;-82
2024/04/13 09:20:07;;;;;;;4.32;2.90;;;22.70;58.20;24.30;102275.00;;;;5450833;26;20274;-79
2024/04/13 09:22:34;;;;;;;3.65;2.70;;;22.80;58.00;24.40;102277.00;;;;5452279;26;20261;-82
2024/04/13 09:25:03;;;;;;;4.68;2.78;;;22.80;58.00;24.40;102276.00;;;;5452376;26;20232;-82
2024/04/13 09:27:31;;;;;;;4.97;2.90;;;22.90;58.00;24.50;102269.00;;;;5451031;26;20275;-81
2024/04/13 09:30:08;;;;;;;3.35;2.97;;;22.90;58.20;24.50;102269.00;;;;5451692;26;20333;-81
2024/04/13 09:32:35;;;;;;;4.65;2.95;;;23.00;58.10;24.60;102264.00;;;;5452502;26;20243;-83
2024/04/13 09:35:15;;;;;;;8.23;4.32;;;23.10;58.30;24.70;102251.00;;;;5451845;26;20244;-82
2024/04/13 09:37:41;;;;;;;6.55;3.25;;;23.10;57.90;24.80;102249.00;;;;5447240;26;20791;-84
2024/04/13 09:40:12;;;;;;;5.70;3.88;;;23.20;57.90;24.90;102249.00;;;;5451915;26;20236;-83
2024/04/13 09:42:38;;;;;;;4.15;3.75;;;23.30;57.90;24.90;102244.00;;;;5452239;26;20221;-83
2024/04/13 09:45:10;;;;;;;4.10;3.40;;;23.40;57.70;25.00;102244.00;;;;5451566;26;20721;-82
2024/04/13 09:47:36;;;;;;;4.95;3.70;;;23.40;57.70;25.10;102250.00;;;;5451257;26;20228;-85
2024/04/13 09:50:05;;;;;;;4.38;3.97;;;23.50;57.80;25.10;102251.00;;;;5451177;26;20328;-80
2024/04/13 09:52:35;;;;;;;4.78;3.50;;;23.60;57.80;25.20;102254.00;;;;5452498;26;20247;-83
2024/04/13 09:55:04;;;;;;;4.15;3.22;;;23.70;57.60;25.30;102256.00;;;;5451747;26;20232;-81
2024/04/13 09:57:30;;;;;;;4.85;4.00;;;23.80;57.60;25.40;102249.00;;;;5427791;26;20225;-81
2024/04/13 10:00:00;;;;;;;6.10;4.30;;;23.80;57.60;25.50;102252.00;;;;5440256;26;20240;-79
2024/04/13 10:02:26;;;;;;;6.90;4.30;;;23.90;57.50;25.50;102233.00;;;;5451877;26;20624;-80
2024/04/13 10:04:55;;;;;;;7.40;4.35;;;24.00;57.40;25.60;102237.00;;;;5451846;26;20236;-80
2024/04/13 10:07:25;;;;;;;4.13;3.72;;;24.10;57.50;25.70;102238.00;;;;5450673;26;20649;-83
2024/04/13 10:10:03;;;;;;;5.63;4.15;;;24.10;58.00;25.70;102222.00;;;;5450980;26;20278;-81
2024/04/13 10:12:36;;;;;;;5.78;4.25;;;24.20;57.30;25.80;102231.00;;;;5452271;26;20216;-83
2024/04/13 10:15:07;;;;;;;8.35;4.40;;;24.30;57.10;25.90;102223.00;;;;5451454;26;20314;-82
2024/04/13 10:17:34;;;;;;;9.88;4.35;;;24.40;57.10;26.00;102232.00;;;;5450866;26;20286;-86
2024/04/13 10:20:03;;;;;;;5.78;3.95;;;24.40;57.10;26.10;102229.00;;;;5451002;26;20228;-78
2024/04/13 10:22:29;;;;;;;8.10;3.83;;;24.50;57.20;26.10;102221.00;;;;5450839;26;20288;-83
2024/04/13 10:25:09;;;;;;;7.78;3.97;;;24.60;57.20;26.10;102219.00;;;;5451033;26;20236;-79
2024/04/13 10:27:35;;;;;;;4.97;3.50;;;24.70;56.70;26.30;102219.00;;;;5451828;26;20231;-82
2024/04/13 10:30:05;;;;;;;5.05;3.95;;;24.70;57.00;26.40;102216.00;;;;5450923;26;20674;-82
2024/04/13 10:32:31;;;;;;;5.78;4.10;;;24.80;56.70;26.40;102222.00;;;;5451266;26;20551;-82
2024/04/13 10:35:11;;;;;;;5.65;4.15;;;24.90;56.50;26.30;102211.00;;;;5448902;26;20733;-83
2024/04/13 10:37:37;;;;;;;5.28;3.60;;;24.90;56.20;26.40;102203.00;;;;5450934;26;20248;-79
2024/04/13 10:40:10;;;;;;;4.45;2.95;;;25.00;56.30;26.40;102208.00;;;;5450362;26;20274;-79
2024/04/13 10:42:38;;;;;;;4.03;3.33;;;25.00;56.20;26.50;102199.00;;;;5449213;26;20244;-81
2024/04/13 10:45:14;;;;;;;8.23;4.25;;;25.10;56.20;26.50;102192.00;;;;5450090;26;20237;-81
2024/04/13 10:47:41;;;;;;;4.60;2.85;;;25.10;56.00;26.60;102187.00;;;;5449384;26;20361;-81
2024/04/13 10:50:13;;;;;;;6.30;3.72;;;25.20;56.20;26.60;102191.00;;;;5450050;26;20598;-81
2024/04/13 10:52:49;;;;;;;5.28;3.44;;;25.20;56.10;26.70;102181.00;;;;5449910;26;10000916;-82